sensor_id;sensor_type;location;lat;lon;timestamp;P1;durP1;ratioP1;P2;durP2;ratioP2
23573;SDS011;11965;53.640;10.050;2023-02-03T00:01:52;6.64;;;6.64;;
23573;SDS011;11965;53.640;10.050;2023-02-03T00:04:20;5.75;;;5.75;;
23573;SDS011;11965;53.640;10.050;2023-02-03T00:06:47;5.74;;;5.71;;
23573;SDS011;11965;53.640;10.050;2023-02-03T00:09:15;5.03;;;5.02;;
23573;SDS011;11965;53.640;10.050;2023-02-03T00:11:43;5.17;;;5.17;;
23573;SDS011;11965;53.640;10.050;2023-02-03T00:14:09;5.79;;;5.79;;
23573;SDS011;11965;53.640;10.050;2023-02-03T00:16:36;7.40;;;7.40;;
23573;SDS011;11965;53.640;10.050;2023-02-03T00:19:04;6.90;;;6.90;;
23573;SDS011;11965;53.640;10.050;2023-02-03T00:21:31;6.99;;;6.99;;
23573;SDS011;11965;53.640;10.050;2023-02-03T00:23:58;7.03;;;7.03;;
23573;SDS011;11965;53.640;10.050;2023-02-03T00:26:25;11.67;;;11.64;;
23573;SDS011;11965;53.640;10.050;2023-02-03T00:28:52;9.78;;;9.76;;
23573;SDS011;11965;53.640;10.050;2023-02-03T00:31:20;19.39;;;19.12;;
23573;SDS011;11965;53.640;10.050;2023-02-03T00:33:52;26.76;;;26.22;;
23573;SDS011;11965;53.640;10.050;2023-02-03T00:36:22;13.51;;;13.02;;
23573;SDS011;11965;53.640;10.050;2023-02-03T00:38:49;12.06;;;11.97;;
23573;SDS011;11965;53.640;10.050;2023-02-03T00:41:16;8.72;;;8.66;;
23573;SDS011;11965;53.640;10.050;2023-02-03T00:43:44;10.74;;;10.44;;
23573;SDS011;11965;53.640;10.050;2023-02-03T00:46:12;17.55;;;16.87;;
23573;SDS011;11965;53.640;10.050;2023-02-03T00:48:40;7.63;;;7.46;;
23573;SDS011;11965;53.640;10.050;2023-02-03T00:51:06;6.93;;;6.93;;
23573;SDS011;11965;53.640;10.050;2023-02-03T00:53:35;6.49;;;6.49;;
23573;SDS011;11965;53.640;10.050;2023-02-03T00:56:01;6.74;;;6.74;;
23573;SDS011;11965;53.640;10.050;2023-02-03T00:58:28;6.35;;;6.35;;
23573;SDS011;11965;53.640;10.050;2023-02-03T01:00:55;7.21;;;7.21;;
23573;SDS011;11965;53.640;10.050;2023-02-03T01:03:23;7.15;;;7.15;;
23573;SDS011;11965;53.640;10.050;2023-02-03T01:05:50;7.36;;;7.36;;
23573;SDS011;11965;53.640;10.050;2023-02-03T01:08:18;7.47;;;7.47;;
23573;SDS011;11965;53.640;10.050;2023-02-03T01:10:46;9.22;;;9.22;;
23573;SDS011;11965;53.640;10.050;2023-02-03T01:13:13;7.98;;;7.98;;
23573;SDS011;11965;53.640;10.050;2023-02-03T01:15:44;7.66;;;7.66;;
23573;SDS011;11965;53.640;10.050;2023-02-03T01:18:12;7.63;;;7.63;;
23573;SDS011;11965;53.640;10.050;2023-02-03T01:20:39;8.12;;;8.12;;
23573;SDS011;11965;53.640;10.050;2023-02-03T01:23:06;8.19;;;8.19;;
23573;SDS011;11965;53.640;10.050;2023-02-03T01:25:33;8.06;;;8.06;;
23573;SDS011;11965;53.640;10.050;2023-02-03T01:28:02;7.77;;;7.77;;
23573;SDS011;11965;53.640;10.050;2023-02-03T01:30:30;7.58;;;7.58;;
23573;SDS011;11965;53.640;10.050;2023-02-03T01:32:57;7.84;;;7.84;;
23573;SDS011;11965;53.640;10.050;2023-02-03T01:35:24;8.13;;;8.13;;
23573;SDS011;11965;53.640;10.050;2023-02-03T01:37:51;7.50;;;7.50;;
23573;SDS011;11965;53.640;10.050;2023-02-03T01:40:18;7.53;;;7.53;;
23573;SDS011;11965;53.640;10.050;2023-02-03T01:42:45;7.54;;;7.54;;
23573;SDS011;11965;53.640;10.050;2023-02-03T01:45:13;7.32;;;7.32;;
23573;SDS011;11965;53.640;10.050;2023-02-03T01:47:41;7.89;;;7.89;;
23573;SDS011;11965;53.640;10.050;2023-02-03T01:50:15;7.11;;;7.11;;
23573;SDS011;11965;53.640;10.050;2023-02-03T01:52:46;7.86;;;7.86;;
23573;SDS011;11965;53.640;10.050;2023-02-03T01:55:19;7.41;;;7.41;;
23573;SDS011;11965;53.640;10.050;2023-02-03T01:57:53;7.14;;;7.14;;
23573;SDS011;11965;53.640;10.050;2023-02-03T02:00:26;7.42;;;7.42;;
23573;SDS011;11965;53.640;10.050;2023-02-03T02:02:54;6.80;;;6.80;;
23573;SDS011;11965;53.640;10.050;2023-02-03T02:05:27;6.85;;;6.85;;
23573;SDS011;11965;53.640;10.050;2023-02-03T02:07:59;6.37;;;6.37;;
23573;SDS011;11965;53.640;10.050;2023-02-03T02:10:29;6.52;;;6.52;;
23573;SDS011;11965;53.640;10.050;2023-02-03T02:12:57;6.65;;;6.65;;
23573;SDS011;11965;53.640;10.050;2023-02-03T02:15:31;6.44;;;6.44;;
23573;SDS011;11965;53.640;10.050;2023-02-03T02:18:17;6.32;;;6.32;;
23573;SDS011;11965;53.640;10.050;2023-02-03T02:21:11;5.89;;;5.89;;
23573;SDS011;11965;53.640;10.050;2023-02-03T02:27:25;6.24;;;6.24;;
23573;SDS011;11965;53.640;10.050;2023-02-03T02:30:23;6.13;;;6.13;;
23573;SDS011;11965;53.640;10.050;2023-02-03T02:33:13;5.96;;;5.96;;
23573;SDS011;11965;53.640;10.050;2023-02-03T02:35:55;5.95;;;5.95;;
23573;SDS011;11965;53.640;10.050;2023-02-03T02:38:34;6.11;;;6.11;;
23573;SDS011;11965;53.640;10.050;2023-02-03T02:41:15;6.11;;;6.11;;
23573;SDS011;11965;53.640;10.050;2023-02-03T02:43:51;5.91;;;5.91;;
23573;SDS011;11965;53.640;10.050;2023-02-03T02:46:29;5.69;;;5.69;;
23573;SDS011;11965;53.640;10.050;2023-02-03T02:49:05;5.79;;;5.79;;
23573;SDS011;11965;53.640;10.050;2023-02-03T02:51:40;5.83;;;5.83;;
23573;SDS011;11965;53.640;10.050;2023-02-03T02:54:12;5.28;;;5.28;;
23573;SDS011;11965;53.640;10.050;2023-02-03T02:56:44;5.55;;;5.55;;
23573;SDS011;11965;53.640;10.050;2023-02-03T02:59:16;5.72;;;5.72;;
23573;SDS011;11965;53.640;10.050;2023-02-03T03:01:44;5.22;;;5.22;;
23573;SDS011;11965;53.640;10.050;2023-02-03T03:04:13;5.15;;;5.15;;
23573;SDS011;11965;53.640;10.050;2023-02-03T03:06:45;5.25;;;5.25;;
23573;SDS011;11965;53.640;10.050;2023-02-03T03:09:17;5.01;;;5.01;;
23573;SDS011;11965;53.640;10.050;2023-02-03T03:11:52;5.02;;;5.02;;
23573;SDS011;11965;53.640;10.050;2023-02-03T03:14:26;5.09;;;5.09;;
23573;SDS011;11965;53.640;10.050;2023-02-03T03:16:59;5.14;;;5.14;;
23573;SDS011;11965;53.640;10.050;2023-02-03T03:19:33;4.55;;;4.55;;
23573;SDS011;11965;53.640;10.050;2023-02-03T03:22:05;4.54;;;4.54;;
23573;SDS011;11965;53.640;10.050;2023-02-03T03:24:38;4.52;;;4.52;;
23573;SDS011;11965;53.640;10.050;2023-02-03T03:27:11;4.43;;;4.43;;
23573;SDS011;11965;53.640;10.050;2023-02-03T03:29:45;4.65;;;4.65;;
23573;SDS011;11965;53.640;10.050;2023-02-03T03:32:17;3.90;;;3.90;;
23573;SDS011;11965;53.640;10.050;2023-02-03T03:34:46;4.37;;;4.35;;
23573;SDS011;11965;53.640;10.050;2023-02-03T03:37:15;4.09;;;4.04;;
23573;SDS011;11965;53.640;10.050;2023-02-03T03:39:49;3.83;;;3.78;;
23573;SDS011;11965;53.640;10.050;2023-02-03T03:42:22;3.69;;;3.67;;
23573;SDS011;11965;53.640;10.050;2023-02-03T03:44:56;3.82;;;3.69;;
23573;SDS011;11965;53.640;10.050;2023-02-03T03:47:30;3.71;;;3.53;;
23573;SDS011;11965;53.640;10.050;2023-02-03T03:50:08;3.69;;;3.51;;
23573;SDS011;11965;53.640;10.050;2023-02-03T03:52:42;3.61;;;3.49;;
23573;SDS011;11965;53.640;10.050;2023-02-03T03:55:13;3.58;;;3.53;;
23573;SDS011;11965;53.640;10.050;2023-02-03T03:57:45;3.80;;;3.64;;
23573;SDS011;11965;53.640;10.050;2023-02-03T04:00:20;3.75;;;3.46;;
23573;SDS011;11965;53.640;10.050;2023-02-03T04:02:53;3.61;;;3.50;;
23573;SDS011;11965;53.640;10.050;2023-02-03T04:05:27;3.68;;;3.49;;
23573;SDS011;11965;53.640;10.050;2023-02-03T04:07:54;3.85;;;3.65;;
23573;SDS011;11965;53.640;10.050;2023-02-03T04:10:25;3.43;;;3.28;;
23573;SDS011;11965;53.640;10.050;2023-02-03T04:12:56;3.53;;;3.43;;
23573;SDS011;11965;53.640;10.050;2023-02-03T04:15:24;3.96;;;3.66;;
23573;SDS011;11965;53.640;10.050;2023-02-03T04:17:50;4.43;;;4.07;;
23573;SDS011;11965;53.640;10.050;2023-02-03T04:20:19;3.75;;;3.49;;
23573;SDS011;11965;53.640;10.050;2023-02-03T04:22:47;4.01;;;3.78;;
23573;SDS011;11965;53.640;10.050;2023-02-03T04:25:15;3.92;;;3.72;;
23573;SDS011;11965;53.640;10.050;2023-02-03T04:27:41;3.52;;;3.47;;
23573;SDS011;11965;53.640;10.050;2023-02-03T04:30:09;3.49;;;3.49;;
23573;SDS011;11965;53.640;10.050;2023-02-03T04:32:37;3.44;;;3.44;;
23573;SDS011;11965;53.640;10.050;2023-02-03T04:35:05;3.50;;;3.50;;
23573;SDS011;11965;53.640;10.050;2023-02-03T04:37:33;3.61;;;3.60;;
23573;SDS011;11965;53.640;10.050;2023-02-03T04:40:01;3.48;;;3.48;;
23573;SDS011;11965;53.640;10.050;2023-02-03T04:42:28;3.56;;;3.56;;
23573;SDS011;11965;53.640;10.050;2023-02-03T04:44:55;3.69;;;3.69;;
23573;SDS011;11965;53.640;10.050;2023-02-03T04:47:22;3.70;;;3.70;;
23573;SDS011;11965;53.640;10.050;2023-02-03T04:49:49;3.70;;;3.70;;
23573;SDS011;11965;53.640;10.050;2023-02-03T04:52:16;3.71;;;3.71;;
23573;SDS011;11965;53.640;10.050;2023-02-03T04:54:43;3.63;;;3.63;;
23573;SDS011;11965;53.640;10.050;2023-02-03T04:57:11;3.74;;;3.74;;
23573;SDS011;11965;53.640;10.050;2023-02-03T04:59:37;3.81;;;3.81;;
23573;SDS011;11965;53.640;10.050;2023-02-03T05:02:04;3.94;;;3.94;;
23573;SDS011;11965;53.640;10.050;2023-02-03T05:04:32;4.17;;;4.17;;
23573;SDS011;11965;53.640;10.050;2023-02-03T05:06:59;3.85;;;3.85;;
23573;SDS011;11965;53.640;10.050;2023-02-03T05:09:26;3.89;;;3.89;;
23573;SDS011;11965;53.640;10.050;2023-02-03T05:11:54;3.88;;;3.88;;
23573;SDS011;11965;53.640;10.050;2023-02-03T05:14:22;4.00;;;4.00;;
23573;SDS011;11965;53.640;10.050;2023-02-03T05:16:49;4.07;;;4.07;;
23573;SDS011;11965;53.640;10.050;2023-02-03T05:19:16;3.76;;;3.76;;
23573;SDS011;11965;53.640;10.050;2023-02-03T05:21:42;4.20;;;4.20;;
23573;SDS011;11965;53.640;10.050;2023-02-03T05:24:09;3.58;;;3.58;;
23573;SDS011;11965;53.640;10.050;2023-02-03T05:26:36;4.03;;;4.03;;
23573;SDS011;11965;53.640;10.050;2023-02-03T05:29:03;3.96;;;3.96;;
23573;SDS011;11965;53.640;10.050;2023-02-03T05:31:31;4.13;;;4.13;;
23573;SDS011;11965;53.640;10.050;2023-02-03T05:33:58;4.21;;;4.21;;
23573;SDS011;11965;53.640;10.050;2023-02-03T05:36:25;4.59;;;4.59;;
23573;SDS011;11965;53.640;10.050;2023-02-03T05:38:52;4.51;;;4.51;;
23573;SDS011;11965;53.640;10.050;2023-02-03T05:41:19;4.04;;;4.04;;
23573;SDS011;11965;53.640;10.050;2023-02-03T05:44:03;4.28;;;4.28;;
23573;SDS011;11965;53.640;10.050;2023-02-03T05:46:35;3.73;;;3.73;;
23573;SDS011;11965;53.640;10.050;2023-02-03T05:49:01;4.32;;;4.32;;
23573;SDS011;11965;53.640;10.050;2023-02-03T05:51:28;4.12;;;4.12;;
23573;SDS011;11965;53.640;10.050;2023-02-03T05:53:55;3.60;;;3.60;;
23573;SDS011;11965;53.640;10.050;2023-02-03T05:56:22;3.60;;;3.60;;
23573;SDS011;11965;53.640;10.050;2023-02-03T05:58:49;3.56;;;3.56;;
23573;SDS011;11965;53.640;10.050;2023-02-03T06:01:17;3.34;;;3.34;;
23573;SDS011;11965;53.640;10.050;2023-02-03T06:03:46;3.54;;;3.54;;
23573;SDS011;11965;53.640;10.050;2023-02-03T06:06:14;3.37;;;3.37;;
23573;SDS011;11965;53.640;10.050;2023-02-03T06:08:41;3.41;;;3.41;;
23573;SDS011;11965;53.640;10.050;2023-02-03T06:11:09;3.12;;;3.12;;
23573;SDS011;11965;53.640;10.050;2023-02-03T06:13:37;2.97;;;2.97;;
23573;SDS011;11965;53.640;10.050;2023-02-03T06:16:04;3.32;;;3.32;;
23573;SDS011;11965;53.640;10.050;2023-02-03T06:18:31;2.94;;;2.94;;
23573;SDS011;11965;53.640;10.050;2023-02-03T06:20:59;2.95;;;2.95;;
23573;SDS011;11965;53.640;10.050;2023-02-03T06:23:26;2.66;;;2.66;;
23573;SDS011;11965;53.640;10.050;2023-02-03T06:25:53;2.90;;;2.89;;
23573;SDS011;11965;53.640;10.050;2023-02-03T06:28:20;2.57;;;2.52;;
23573;SDS011;11965;53.640;10.050;2023-02-03T06:30:48;2.63;;;2.58;;
23573;SDS011;11965;53.640;10.050;2023-02-03T06:33:17;2.81;;;2.75;;
23573;SDS011;11965;53.640;10.050;2023-02-03T06:35:44;3.03;;;2.98;;
23573;SDS011;11965;53.640;10.050;2023-02-03T06:38:12;2.91;;;2.90;;
23573;SDS011;11965;53.640;10.050;2023-02-03T06:40:39;2.60;;;2.60;;
23573;SDS011;11965;53.640;10.050;2023-02-03T06:43:06;2.58;;;2.53;;
23573;SDS011;11965;53.640;10.050;2023-02-03T06:45:32;2.73;;;2.65;;
23573;SDS011;11965;53.640;10.050;2023-02-03T06:47:59;2.67;;;2.51;;
23573;SDS011;11965;53.640;10.050;2023-02-03T06:50:26;3.06;;;2.84;;
23573;SDS011;11965;53.640;10.050;2023-02-03T06:52:53;3.08;;;2.87;;
23573;SDS011;11965;53.640;10.050;2023-02-03T06:55:21;3.42;;;3.14;;
23573;SDS011;11965;53.640;10.050;2023-02-03T06:57:48;3.44;;;3.21;;
23573;SDS011;11965;53.640;10.050;2023-02-03T07:00:16;3.47;;;3.25;;
23573;SDS011;11965;53.640;10.050;2023-02-03T07:02:45;4.72;;;4.34;;
23573;SDS011;11965;53.640;10.050;2023-02-03T07:05:18;4.38;;;3.95;;
23573;SDS011;11965;53.640;10.050;2023-02-03T07:07:45;4.56;;;3.94;;
23573;SDS011;11965;53.640;10.050;2023-02-03T07:10:12;4.85;;;4.18;;
23573;SDS011;11965;53.640;10.050;2023-02-03T07:12:40;4.79;;;4.12;;
23573;SDS011;11965;53.640;10.050;2023-02-03T07:15:08;4.71;;;4.04;;
23573;SDS011;11965;53.640;10.050;2023-02-03T07:17:36;4.86;;;4.21;;
23573;SDS011;11965;53.640;10.050;2023-02-03T07:20:03;5.00;;;4.34;;
23573;SDS011;11965;53.640;10.050;2023-02-03T07:22:31;4.35;;;3.74;;
23573;SDS011;11965;53.640;10.050;2023-02-03T07:24:58;4.79;;;4.06;;
23573;SDS011;11965;53.640;10.050;2023-02-03T07:27:25;4.37;;;3.84;;
23573;SDS011;11965;53.640;10.050;2023-02-03T07:29:53;4.61;;;4.07;;
23573;SDS011;11965;53.640;10.050;2023-02-03T07:32:20;3.89;;;3.44;;
23573;SDS011;11965;53.640;10.050;2023-02-03T07:34:47;4.45;;;3.80;;
23573;SDS011;11965;53.640;10.050;2023-02-03T07:37:14;4.10;;;3.50;;
23573;SDS011;11965;53.640;10.050;2023-02-03T07:39:41;3.91;;;3.35;;
23573;SDS011;11965;53.640;10.050;2023-02-03T07:42:08;3.80;;;3.23;;
23573;SDS011;11965;53.640;10.050;2023-02-03T07:44:40;3.82;;;3.21;;
23573;SDS011;11965;53.640;10.050;2023-02-03T07:47:08;4.30;;;3.55;;
23573;SDS011;11965;53.640;10.050;2023-02-03T07:49:35;4.35;;;3.61;;
23573;SDS011;11965;53.640;10.050;2023-02-03T07:52:02;3.71;;;3.03;;
23573;SDS011;11965;53.640;10.050;2023-02-03T07:54:29;4.21;;;3.34;;
23573;SDS011;11965;53.640;10.050;2023-02-03T07:56:56;4.76;;;3.72;;
23573;SDS011;11965;53.640;10.050;2023-02-03T07:59:23;4.42;;;3.40;;
23573;SDS011;11965;53.640;10.050;2023-02-03T08:01:49;4.16;;;3.21;;
23573;SDS011;11965;53.640;10.050;2023-02-03T08:04:21;4.44;;;3.40;;
23573;SDS011;11965;53.640;10.050;2023-02-03T08:06:48;4.77;;;3.52;;
23573;SDS011;11965;53.640;10.050;2023-02-03T08:09:15;5.04;;;3.58;;
23573;SDS011;11965;53.640;10.050;2023-02-03T08:11:42;4.49;;;3.13;;
23573;SDS011;11965;53.640;10.050;2023-02-03T08:14:09;4.54;;;3.13;;
23573;SDS011;11965;53.640;10.050;2023-02-03T08:16:36;4.38;;;2.96;;
23573;SDS011;11965;53.640;10.050;2023-02-03T08:19:03;4.50;;;2.97;;
23573;SDS011;11965;53.640;10.050;2023-02-03T08:21:31;5.17;;;3.37;;
23573;SDS011;11965;53.640;10.050;2023-02-03T08:23:58;7.18;;;4.69;;
23573;SDS011;11965;53.640;10.050;2023-02-03T08:26:25;7.70;;;5.05;;
23573;SDS011;11965;53.640;10.050;2023-02-03T08:28:52;8.97;;;5.94;;
23573;SDS011;11965;53.640;10.050;2023-02-03T08:31:18;9.12;;;5.98;;
23573;SDS011;11965;53.640;10.050;2023-02-03T08:33:45;10.51;;;6.75;;
23573;SDS011;11965;53.640;10.050;2023-02-03T08:36:13;10.56;;;6.73;;
23573;SDS011;11965;53.640;10.050;2023-02-03T08:38:41;11.35;;;7.34;;
23573;SDS011;11965;53.640;10.050;2023-02-03T08:41:08;12.76;;;8.04;;
23573;SDS011;11965;53.640;10.050;2023-02-03T08:43:36;13.27;;;8.27;;
23573;SDS011;11965;53.640;10.050;2023-02-03T08:46:03;13.96;;;8.70;;
23573;SDS011;11965;53.640;10.050;2023-02-03T08:48:31;14.71;;;9.19;;
23573;SDS011;11965;53.640;10.050;2023-02-03T08:50:58;14.91;;;9.52;;
23573;SDS011;11965;53.640;10.050;2023-02-03T08:53:25;16.14;;;10.25;;
23573;SDS011;11965;53.640;10.050;2023-02-03T08:55:54;16.20;;;10.07;;
23573;SDS011;11965;53.640;10.050;2023-02-03T08:58:21;17.48;;;10.71;;
23573;SDS011;11965;53.640;10.050;2023-02-03T09:00:48;18.20;;;11.16;;
23573;SDS011;11965;53.640;10.050;2023-02-03T09:03:17;18.66;;;11.44;;
23573;SDS011;11965;53.640;10.050;2023-02-03T09:05:44;18.06;;;10.97;;
23573;SDS011;11965;53.640;10.050;2023-02-03T09:08:11;17.44;;;10.92;;
23573;SDS011;11965;53.640;10.050;2023-02-03T09:10:37;18.42;;;11.14;;
23573;SDS011;11965;53.640;10.050;2023-02-03T09:13:06;18.30;;;11.08;;
23573;SDS011;11965;53.640;10.050;2023-02-03T09:15:32;19.79;;;11.98;;
23573;SDS011;11965;53.640;10.050;2023-02-03T09:17:59;19.50;;;11.99;;
23573;SDS011;11965;53.640;10.050;2023-02-03T09:20:26;19.54;;;11.86;;
23573;SDS011;11965;53.640;10.050;2023-02-03T09:22:53;21.17;;;12.76;;
23573;SDS011;11965;53.640;10.050;2023-02-03T09:25:23;22.00;;;13.16;;
23573;SDS011;11965;53.640;10.050;2023-02-03T09:27:50;23.10;;;14.03;;
23573;SDS011;11965;53.640;10.050;2023-02-03T09:30:18;21.26;;;12.97;;
23573;SDS011;11965;53.640;10.050;2023-02-03T09:32:45;23.44;;;14.08;;
23573;SDS011;11965;53.640;10.050;2023-02-03T09:35:18;24.07;;;14.31;;
23573;SDS011;11965;53.640;10.050;2023-02-03T09:37:45;26.74;;;15.63;;
23573;SDS011;11965;53.640;10.050;2023-02-03T09:40:16;23.10;;;13.90;;
23573;SDS011;11965;53.640;10.050;2023-02-03T09:42:53;24.05;;;14.66;;
23573;SDS011;11965;53.640;10.050;2023-02-03T09:45:30;22.98;;;14.02;;
23573;SDS011;11965;53.640;10.050;2023-02-03T09:47:58;25.04;;;15.26;;
23573;SDS011;11965;53.640;10.050;2023-02-03T09:50:32;27.92;;;16.53;;
23573;SDS011;11965;53.640;10.050;2023-02-03T09:53:04;28.89;;;16.94;;
23573;SDS011;11965;53.640;10.050;2023-02-03T09:55:44;28.05;;;16.78;;
23573;SDS011;11965;53.640;10.050;2023-02-03T09:58:14;28.05;;;16.51;;
23573;SDS011;11965;53.640;10.050;2023-02-03T10:00:47;28.82;;;17.01;;
23573;SDS011;11965;53.640;10.050;2023-02-03T10:03:23;28.75;;;16.93;;
23573;SDS011;11965;53.640;10.050;2023-02-03T10:06:00;29.04;;;17.16;;
23573;SDS011;11965;53.640;10.050;2023-02-03T10:08:49;28.59;;;17.00;;
23573;SDS011;11965;53.640;10.050;2023-02-03T10:11:33;31.31;;;18.52;;
23573;SDS011;11965;53.640;10.050;2023-02-03T10:14:21;29.33;;;17.00;;
23573;SDS011;11965;53.640;10.050;2023-02-03T10:17:07;29.30;;;17.03;;
23573;SDS011;11965;53.640;10.050;2023-02-03T10:19:49;29.25;;;17.42;;
23573;SDS011;11965;53.640;10.050;2023-02-03T10:22:23;30.10;;;17.93;;
23573;SDS011;11965;53.640;10.050;2023-02-03T10:24:55;29.62;;;17.93;;
23573;SDS011;11965;53.640;10.050;2023-02-03T10:27:26;28.17;;;17.15;;
23573;SDS011;11965;53.640;10.050;2023-02-03T10:29:56;27.91;;;16.78;;
23573;SDS011;11965;53.640;10.050;2023-02-03T10:32:30;28.19;;;16.76;;
23573;SDS011;11965;53.640;10.050;2023-02-03T10:34:58;27.81;;;16.91;;
23573;SDS011;11965;53.640;10.050;2023-02-03T10:37:28;27.01;;;16.25;;
23573;SDS011;11965;53.640;10.050;2023-02-03T10:39:59;27.24;;;16.33;;
23573;SDS011;11965;53.640;10.050;2023-02-03T10:42:28;28.38;;;16.91;;
23573;SDS011;11965;53.640;10.050;2023-02-03T10:45:18;29.48;;;17.34;;
23573;SDS011;11965;53.640;10.050;2023-02-03T10:47:48;28.78;;;16.94;;
23573;SDS011;11965;53.640;10.050;2023-02-03T10:50:20;28.53;;;16.95;;
23573;SDS011;11965;53.640;10.050;2023-02-03T10:52:49;27.47;;;16.53;;
23573;SDS011;11965;53.640;10.050;2023-02-03T10:55:29;26.29;;;16.07;;
23573;SDS011;11965;53.640;10.050;2023-02-03T10:57:57;28.52;;;17.11;;
23573;SDS011;11965;53.640;10.050;2023-02-03T11:00:40;27.24;;;16.34;;
23573;SDS011;11965;53.640;10.050;2023-02-03T11:03:15;27.49;;;16.37;;
23573;SDS011;11965;53.640;10.050;2023-02-03T11:06:02;26.45;;;15.93;;
23573;SDS011;11965;53.640;10.050;2023-02-03T11:08:30;25.54;;;15.56;;
23573;SDS011;11965;53.640;10.050;2023-02-03T11:11:02;25.91;;;15.87;;
23573;SDS011;11965;53.640;10.050;2023-02-03T11:13:31;26.00;;;15.94;;
23573;SDS011;11965;53.640;10.050;2023-02-03T11:15:59;25.06;;;15.60;;
23573;SDS011;11965;53.640;10.050;2023-02-03T11:18:40;26.34;;;15.92;;
23573;SDS011;11965;53.640;10.050;2023-02-03T11:21:17;28.79;;;17.46;;
23573;SDS011;11965;53.640;10.050;2023-02-03T11:23:48;25.35;;;15.08;;
23573;SDS011;11965;53.640;10.050;2023-02-03T11:26:23;25.90;;;15.57;;
23573;SDS011;11965;53.640;10.050;2023-02-03T11:28:55;26.88;;;15.82;;
23573;SDS011;11965;53.640;10.050;2023-02-03T11:31:25;26.02;;;15.53;;
23573;SDS011;11965;53.640;10.050;2023-02-03T11:33:57;25.44;;;15.24;;
23573;SDS011;11965;53.640;10.050;2023-02-03T11:36:28;24.31;;;14.63;;
23573;SDS011;11965;53.640;10.050;2023-02-03T11:39:09;25.23;;;15.04;;
23573;SDS011;11965;53.640;10.050;2023-02-03T11:41:43;23.73;;;14.15;;
23573;SDS011;11965;53.640;10.050;2023-02-03T11:44:14;24.08;;;14.39;;
23573;SDS011;11965;53.640;10.050;2023-02-03T11:46:44;22.68;;;13.66;;
23573;SDS011;11965;53.640;10.050;2023-02-03T11:49:23;24.06;;;14.57;;
23573;SDS011;11965;53.640;10.050;2023-02-03T11:52:12;21.66;;;13.26;;
23573;SDS011;11965;53.640;10.050;2023-02-03T11:54:59;24.06;;;14.59;;
23573;SDS011;11965;53.640;10.050;2023-02-03T11:57:41;22.98;;;13.71;;
23573;SDS011;11965;53.640;10.050;2023-02-03T12:00:22;24.06;;;14.53;;
23573;SDS011;11965;53.640;10.050;2023-02-03T12:03:10;25.42;;;14.91;;
23573;SDS011;11965;53.640;10.050;2023-02-03T12:06:07;25.11;;;14.83;;
23573;SDS011;11965;53.640;10.050;2023-02-03T12:08:51;22.07;;;13.27;;
23573;SDS011;11965;53.640;10.050;2023-02-03T12:11:46;23.35;;;14.11;;
23573;SDS011;11965;53.640;10.050;2023-02-03T12:14:37;22.76;;;13.86;;
23573;SDS011;11965;53.640;10.050;2023-02-03T12:17:27;22.88;;;13.91;;
23573;SDS011;11965;53.640;10.050;2023-02-03T12:20:17;23.53;;;14.01;;
23573;SDS011;11965;53.640;10.050;2023-02-03T12:22:58;28.61;;;16.81;;
23573;SDS011;11965;53.640;10.050;2023-02-03T12:25:40;23.26;;;13.93;;
23573;SDS011;11965;53.640;10.050;2023-02-03T12:28:27;21.72;;;13.09;;
23573;SDS011;11965;53.640;10.050;2023-02-03T12:31:11;20.89;;;12.65;;
23573;SDS011;11965;53.640;10.050;2023-02-03T12:33:47;20.35;;;12.49;;
23573;SDS011;11965;53.640;10.050;2023-02-03T12:36:20;23.14;;;14.13;;
23573;SDS011;11965;53.640;10.050;2023-02-03T12:38:55;22.46;;;13.56;;
23573;SDS011;11965;53.640;10.050;2023-02-03T12:41:29;21.65;;;12.98;;
23573;SDS011;11965;53.640;10.050;2023-02-03T12:44:03;20.70;;;12.58;;
23573;SDS011;11965;53.640;10.050;2023-02-03T12:46:41;20.82;;;12.85;;
23573;SDS011;11965;53.640;10.050;2023-02-03T12:49:15;21.28;;;12.73;;
23573;SDS011;11965;53.640;10.050;2023-02-03T12:51:56;21.63;;;12.92;;
23573;SDS011;11965;53.640;10.050;2023-02-03T12:54:33;21.09;;;12.85;;
23573;SDS011;11965;53.640;10.050;2023-02-03T12:57:13;21.54;;;12.75;;
23573;SDS011;11965;53.640;10.050;2023-02-03T12:59:49;20.25;;;12.05;;
23573;SDS011;11965;53.640;10.050;2023-02-03T13:02:27;19.86;;;11.77;;
23573;SDS011;11965;53.640;10.050;2023-02-03T13:05:03;20.28;;;12.12;;
23573;SDS011;11965;53.640;10.050;2023-02-03T13:07:42;17.45;;;10.59;;
23573;SDS011;11965;53.640;10.050;2023-02-03T13:10:18;17.38;;;10.63;;
23573;SDS011;11965;53.640;10.050;2023-02-03T13:12:53;17.07;;;10.38;;
23573;SDS011;11965;53.640;10.050;2023-02-03T13:15:24;18.48;;;11.01;;
23573;SDS011;11965;53.640;10.050;2023-02-03T13:17:56;21.52;;;12.72;;
23573;SDS011;11965;53.640;10.050;2023-02-03T13:20:30;20.40;;;12.16;;
23573;SDS011;11965;53.640;10.050;2023-02-03T13:23:00;18.61;;;11.11;;
23573;SDS011;11965;53.640;10.050;2023-02-03T13:25:38;19.12;;;11.36;;
23573;SDS011;11965;53.640;10.050;2023-02-03T13:28:22;19.96;;;11.69;;
23573;SDS011;11965;53.640;10.050;2023-02-03T13:31:13;20.88;;;12.43;;
23573;SDS011;11965;53.640;10.050;2023-02-03T13:34:01;19.17;;;11.52;;
23573;SDS011;11965;53.640;10.050;2023-02-03T13:37:09;18.59;;;11.18;;
23573;SDS011;11965;53.640;10.050;2023-02-03T13:40:02;18.50;;;11.28;;
23573;SDS011;11965;53.640;10.050;2023-02-03T13:42:43;20.20;;;12.08;;
23573;SDS011;11965;53.640;10.050;2023-02-03T13:45:19;19.71;;;11.70;;
23573;SDS011;11965;53.640;10.050;2023-02-03T13:47:52;20.55;;;12.42;;
23573;SDS011;11965;53.640;10.050;2023-02-03T13:50:26;20.20;;;12.38;;
23573;SDS011;11965;53.640;10.050;2023-02-03T13:52:57;19.72;;;12.08;;
23573;SDS011;11965;53.640;10.050;2023-02-03T13:55:29;20.68;;;12.40;;
23573;SDS011;11965;53.640;10.050;2023-02-03T13:58:04;21.02;;;12.60;;
23573;SDS011;11965;53.640;10.050;2023-02-03T14:00:58;20.19;;;12.17;;
23573;SDS011;11965;53.640;10.050;2023-02-03T14:03:40;21.84;;;13.10;;
23573;SDS011;11965;53.640;10.050;2023-02-03T14:09:45;21.90;;;13.33;;
23573;SDS011;11965;53.640;10.050;2023-02-03T14:12:20;22.72;;;13.47;;
23573;SDS011;11965;53.640;10.050;2023-02-03T14:15:00;23.92;;;14.06;;
23573;SDS011;11965;53.640;10.050;2023-02-03T14:20:53;22.12;;;13.39;;
23573;SDS011;11965;53.640;10.050;2023-02-03T14:23:39;21.96;;;13.16;;
23573;SDS011;11965;53.640;10.050;2023-02-03T14:26:15;23.06;;;13.86;;
23573;SDS011;11965;53.640;10.050;2023-02-03T14:28:56;21.04;;;12.90;;
23573;SDS011;11965;53.640;10.050;2023-02-03T14:31:25;20.03;;;12.17;;
23573;SDS011;11965;53.640;10.050;2023-02-03T14:34:06;21.88;;;13.16;;
23573;SDS011;11965;53.640;10.050;2023-02-03T14:36:42;20.63;;;12.42;;
23573;SDS011;11965;53.640;10.050;2023-02-03T14:42:08;22.42;;;13.18;;
23573;SDS011;11965;53.640;10.050;2023-02-03T14:44:50;20.42;;;12.37;;
23573;SDS011;11965;53.640;10.050;2023-02-03T14:47:38;22.50;;;13.71;;
23573;SDS011;11965;53.640;10.050;2023-02-03T14:50:21;20.51;;;12.52;;
23573;SDS011;11965;53.640;10.050;2023-02-03T14:53:03;22.02;;;13.12;;
23573;SDS011;11965;53.640;10.050;2023-02-03T14:55:49;23.01;;;13.70;;
23573;SDS011;11965;53.640;10.050;2023-02-03T14:58:34;22.41;;;13.50;;
23573;SDS011;11965;53.640;10.050;2023-02-03T15:01:21;23.75;;;14.52;;
23573;SDS011;11965;53.640;10.050;2023-02-03T15:06:50;22.05;;;13.48;;
23573;SDS011;11965;53.640;10.050;2023-02-03T15:09:23;23.05;;;14.10;;